Nearby METAR Reports

 

KDWH - Houston/Dw Hooks, Texas, USA
Distance from station: WNW 3mi, 6km
Updated: 07/21/2024 7:53am
Clear
Clear
 
Temperature: 81°F, 27°C
Heat Index: 88°F, 31°C
Dew Point: 77°F, 25°C
Humidity: 89%
Barometer: 30.02 inHg, 1016.6 hPa
Clouds: Clear
Visibility: 7 miles, 11 km
2024/07/21 12:53 KDWH 211253Z 7SM CLR 27/25 A3002 RMK AO2 SLP161 T02670250 $
KIAH - Houston/Intnl, Texas, USA
Distance from station: ESE 9mi, 14km
Updated: 07/21/2024 7:53am
Partly cloudy
Partly cloudy
 Wind from calm
Wind: Calm
Temperature: 81°F, 27°C
Heat Index: 88°F, 31°C
Dew Point: 77°F, 25°C
Humidity: 89%
Barometer: 30.01 inHg, 1016.3 hPa
Clouds: Partly cloudy
Visibility: 10 miles, 16 km
Cloud details: Few Clouds 2300 ft
Few Clouds 7000 ft
Partly cloudy 25000 ft
2024/07/21 12:53 KIAH 211253Z 00000KT 10SM FEW023 FEW070 SCT250 27/25 A3001 RMK AO2 SLP161 T02670250
 
KCXO - Conroe, Texas, USA
Distance from station: NNE 21mi, 34km
Updated: 07/21/2024 7:53am
Mist, Few clouds
Mist, Few clouds
 Wind from calm
Wind: Calm
Temperature: 77°F, 25°C
Dew Point: 75°F, 24°C
Humidity: 94%
Barometer: 30.03 inHg, 1016.9 hPa
Summary: Mist
Clouds: Few Clouds
Visibility: 4 miles, 6 km
Cloud details: Few Clouds 1300 ft
2024/07/21 12:53 KCXO 211253Z AUTO 00000KT 4SM BR FEW013 25/24 A3003 RMK AO2 SLP164 T02500239
KMCJ - Houston/Univ, Texas, USA
Distance from station: SSE 24mi, 39km
Updated: 07/08/2024 4:55pm
NOT Current
Mostly cloudy
Mostly cloudy
 Wind from WNW
Wind: WNW 13 mph, 20 km/h, Gust: 28 mph, 44 km/h
Temperature: 82°F, 28°C
Heat Index: 86°F, 30°C
Dew Point: 72°F, 22°C
Humidity: 70%
Barometer: 29.77 inHg, 1008.1 hPa
Clouds: Mostly cloudy
Cloud details: Mostly cloudy 3300 ft
Mostly cloudy 4200 ft
2024/07/08 21:55 KMCJ 082155Z AUTO 29011G24KT 260V320 BKN033 BKN042 28/22 A2977 RMK A01
 
KTME - Houston Exec, Texas, USA
Distance from station: SW 30mi, 48km
Updated: 07/21/2024 8:15am
Mist, Clear
Mist, Clear
 Wind from calm
Wind: Calm
Temperature: 81°F, 27°C
Heat Index: 89°F, 32°C
Dew Point: 79°F, 26°C
Humidity: 94%
Barometer: 30.03 inHg, 1016.9 hPa
Summary: Mist
Clouds: Clear
Visibility: 6 miles, 10 km
2024/07/21 13:15 KTME 211315Z AUTO 00000KT 6SM BR CLR 27/26 A3003 RMK AO2
KHOU - Houston/Hobby, Texas, USA
Distance from station: SSE 32mi, 51km
Updated: 07/21/2024 7:53am
Partly cloudy
Partly cloudy
 Wind from calm
Wind: Calm
Temperature: 82°F, 28°C
Heat Index: 90°F, 32°C
Dew Point: 77°F, 25°C
Humidity: 84%
Barometer: 30.00 inHg, 1015.9 hPa
Clouds: Partly cloudy
Visibility: 10 miles, 16 km
Cloud details: Few Clouds 6000 ft
Partly cloudy 25000 ft
2024/07/21 12:53 KHOU 211253Z 00000KT 10SM FEW060 SCT250 28/25 A3000 RMK AO2 SLP163 T02830250 $
 
KSGR - Houston/Sugar La, Texas, USA
Distance from station: SSW 32mi, 51km
Updated: 07/21/2024 7:53am
Clear
Clear
 Wind from calm
Wind: Calm
Temperature: 81°F, 27°C
Heat Index: 89°F, 32°C
Dew Point: 79°F, 26°C
Humidity: 94%
Barometer: 30.00 inHg, 1015.9 hPa
Clouds: Clear
Visibility: 10 miles, 16 km
2024/07/21 12:53 KSGR 211253Z 00000KT 10SM CLR 27/26 A3000 RMK AO2 SLP160 T02670256 $
K6R3 - Cleveland Muni, Texas, USA
Distance from station: NE 36mi, 58km
Updated: 07/21/2024 8:15am
Mist, Clear
Mist, Clear
 Wind from calm
Wind: Calm
Temperature: 79°F, 26°C
Dew Point: 77°F, 25°C
Humidity: 94%
Barometer: 30.04 inHg, 1017.3 hPa
Summary: Mist
Clouds: Clear
Visibility: 5 miles, 8 km
2024/07/21 13:15 K6R3 211315Z AUTO 00000KT 5SM BR CLR 26/25 A3004 RMK AO2 LTG DSNT SE T02590251
 
KAXH - Houston/Southwst, Texas, USA
Distance from station: S 37mi, 60km
Updated: 07/08/2024 5:35am
NOT Current
Heavy rain
Heavy rain
 Wind from E
Wind: E 31 mph, 50 km/h, Gust: 45 mph, 72 km/h
Temperature: 77°F, 25°C
Dew Point: 75°F, 24°C
Humidity: 94%
Barometer: 29.44 inHg, 997 hPa
Summary: Heavy rain
Visibility: 1 mile, 2 km
2024/07/08 10:35 KAXH 081035Z AUTO 09027G39KT 1SM +RA 25/24 A2944 RMK AO2 P0072 T02480240
KEFD - Houston/Ellingto, Texas, USA
Distance from station: SSE 37mi, 60km
Updated: 07/21/2024 7:54am
Clear
Clear
 Wind from ESE
Wind: ESE 3 mph, 6 km/h
Temperature: 79°F, 26°C
Dew Point: 75°F, 24°C
Humidity: 89%
Barometer: 29.99 inHg, 1015.6 hPa
Clouds: Clear
Visibility: 10 miles, 16 km
2024/07/21 12:54 KEFD 211254Z 12003KT 10SM CLR 26/24 A2999
 
KLVJ - Houston, Texas, USA
Distance from station: SSE 40mi, 64km
Updated: 07/21/2024 7:53am
Clear
Clear
 Wind from calm
Wind: Calm
Temperature: 82°F, 28°C
Heat Index: 91°F, 33°C
Dew Point: 79°F, 26°C
Humidity: 89%
Barometer: 30.02 inHg, 1016.6 hPa
Clouds: Clear
Visibility: 10 miles, 16 km
2024/07/21 12:53 KLVJ 211253Z AUTO 00000KT 10SM CLR 28/26 A3002 RMK AO2 SLP165 T02780256 $
KUTS - Huntsville, Texas, USA
Distance from station: N 48mi, 78km
Updated: 07/21/2024 8:13am
Mostly cloudy
Mostly cloudy
 Wind from calm
Wind: Calm
Temperature: 79°F, 26°C
Dew Point: 75°F, 24°C
Humidity: 89%
Barometer: 30.05 inHg, 1017.6 hPa
Clouds: Mostly cloudy
Visibility: 8 miles, 13 km
Cloud details: Mostly cloudy 1200 ft
2024/07/21 13:13 KUTS 211313Z AUTO 00000KT 8SM BKN012 26/24 A3005 RMK AO2 T02560239 $